Terminal Aerodrome Forecast
Issued by NWS Charleston, WV

Current Version | Previous Version | Text Only | Print | Product List | Glossary Off
Versions: 1 2 3 4 5 6 7 8 9 10 11 12 13 14 15 16 17 18 19 20 21

820
FTUS41 KRLX 262332
TAFBKW
TAF
KBKW 262332Z 2700/2724 26012KT P6SM SCT020
     FM270500 25004KT 3SM +SHRA BR VCTS BKN030CB
     FM271300 25004KT 6SM BR OVC020
     FM271500 27007KT 6SM BR BKN030
     FM271700 27008G19KT 6SM BR VCTS BKN035CB
     FM272000 27006KT 3SM SHRA HZ VCTS BKN030CB=

USA.gov is the U.S. government's official web portal to all federal, state and local government web resources and services.